Time;durP1;ratioP1;P1;durP2;ratioP2;P2;SDS_P1;SDS_P2;PMS_P1;PMS_P2;Temp;Humidity;BMP_temperature;BMP_pressure;BME280_temperature;BME280_humidity;BME280_pressure;Samples;Min_cycle;Max_cycle;Signal;HPM_P1;HPM_P2
2023/12/19 00:00:18;;;;;;;0.50;0.50;;;;;;;4.16;100.00;100589.81;5071685;28;20212;-69
2023/12/19 00:02:45;;;;;;;0.80;0.80;;;;;;;4.16;100.00;100591.50;5071619;28;20630;-69
2023/12/19 00:05:12;;;;;;;1.20;1.20;;;;;;;4.05;100.00;100568.50;5071762;28;20196;-69
2023/12/19 00:07:40;;;;;;;0.73;0.73;;;;;;;4.19;100.00;100587.31;5071539;28;20196;-69
2023/12/19 00:10:08;;;;;;;0.70;0.70;;;;;;;4.19;100.00;100577.16;5071858;28;20211;-70
2023/12/19 00:12:35;;;;;;;0.87;0.87;;;;;;;4.22;100.00;100581.44;5071670;28;20200;-70
2023/12/19 00:15:01;;;;;;;0.63;0.63;;;;;;;4.22;100.00;100577.22;5071495;28;20200;-69
2023/12/19 00:17:29;;;;;;;1.03;1.03;;;;;;;4.16;100.00;100566.97;5071601;28;20257;-69
2023/12/19 00:19:57;;;;;;;1.13;1.13;;;;;;;4.20;100.00;100578.84;5066120;28;20212;-69
2023/12/19 00:22:23;;;;;;;0.80;0.80;;;;;;;4.18;100.00;100572.06;5071747;28;20231;-69
2023/12/19 00:24:50;;;;;;;0.70;0.70;;;;;;;4.04;100.00;100561.72;5071492;28;20761;-69
2023/12/19 00:27:17;;;;;;;0.80;0.80;;;;;;;4.12;100.00;100575.38;5071595;28;20200;-69
2023/12/19 00:29:43;;;;;;;0.90;0.90;;;;;;;4.01;100.00;100550.66;5071486;28;20192;-69
2023/12/19 00:32:10;;;;;;;0.60;0.60;;;;;;;4.10;100.00;100582.09;5071428;28;20192;-70
2023/12/19 00:34:38;;;;;;;0.80;0.80;;;;;;;4.12;100.00;100570.28;5071417;28;20200;-69
2023/12/19 00:37:05;;;;;;;0.83;0.83;;;;;;;4.01;100.00;100556.59;5071278;28;20631;-69
2023/12/19 00:39:31;;;;;;;0.67;0.67;;;;;;;4.13;100.00;100582.16;5071610;28;20212;-69
2023/12/19 00:41:58;;;;;;;0.60;0.60;;;;;;;4.09;100.00;100570.25;5071356;28;20203;-69
2023/12/19 00:44:25;;;;;;;0.60;0.60;;;;;;;4.14;100.00;100583.00;5071707;28;20204;-70
2023/12/19 00:46:51;;;;;;;1.70;1.70;;;;;;;4.14;100.00;100578.78;5071389;28;20261;-69
2023/12/19 00:49:18;;;;;;;0.63;0.63;;;;;;;4.10;100.00;100577.00;5071168;28;20249;-69
2023/12/19 00:51:46;;;;;;;0.60;0.60;;;;;;;3.95;100.00;100576.78;5071215;28;20282;-69
2023/12/19 00:54:13;;;;;;;1.10;1.10;;;;;;;3.94;100.00;100575.06;5071189;28;20207;-69
2023/12/19 00:56:42;;;;;;;0.67;0.67;;;;;;;3.95;100.00;100566.66;5071215;28;20200;-69
2023/12/19 00:59:09;;;;;;;1.07;1.07;;;;;;;3.97;100.00;100567.53;5070960;28;20227;-69
2023/12/19 01:01:35;;;;;;;0.73;0.73;;;;;;;3.96;100.00;100573.44;5071724;28;20196;-69
2023/12/19 01:04:02;;;;;;;0.80;0.80;;;;;;;3.97;100.00;100569.22;5071078;28;20204;-69
2023/12/19 01:06:29;;;;;;;1.07;1.07;;;;;;;3.94;100.00;100570.00;5071244;28;20196;-69
2023/12/19 01:08:58;;;;;;;0.67;0.67;;;;;;;3.91;100.00;100569.97;5075044;28;20200;-69
2023/12/19 01:11:24;;;;;;;0.50;0.50;;;;;;;3.91;100.00;100575.03;5074915;28;20253;-69
2023/12/19 01:13:51;;;;;;;0.60;0.60;;;;;;;3.86;100.00;100566.50;5074995;28;20196;-69
2023/12/19 01:16:18;;;;;;;0.90;0.90;;;;;;;3.75;100.00;100562.94;5074869;28;20196;-69
2023/12/19 01:18:44;;;;;;;0.90;0.90;;;;;;;3.72;100.00;100562.91;5074915;28;20191;-69
2023/12/19 01:21:11;;;;;;;0.70;0.70;;;;;;;3.69;100.00;100552.72;5074991;28;20736;-69
2023/12/19 01:23:38;;;;;;;0.93;0.93;;;;;;;3.63;100.00;100548.41;5074764;28;20196;-69
2023/12/19 01:26:06;;;;;;;0.70;0.70;;;;;;;3.61;100.00;100541.59;5076494;28;20249;-69
2023/12/19 01:28:33;;;;;;;0.57;0.57;;;;;;;3.62;100.00;100540.75;5074765;28;20663;-69
2023/12/19 01:31:00;;;;;;;1.37;1.37;;;;;;;3.62;100.00;100541.63;5074814;28;20227;-69
2023/12/19 01:33:29;;;;;;;0.60;0.60;;;;;;;3.56;100.00;100540.66;5074755;28;20265;-69
2023/12/19 01:35:56;;;;;;;0.70;0.70;;;;;;;3.53;100.00;100540.63;5074692;28;20204;-70
2023/12/19 01:38:22;;;;;;;1.00;1.00;;;;;;;3.47;100.00;100540.50;5074492;28;20196;-70
2023/12/19 01:40:49;;;;;;;1.10;1.10;;;;;;;3.40;100.00;100543.78;5074583;28;20216;-69
2023/12/19 01:43:19;;;;;;;0.80;0.80;;;;;;;3.42;100.00;100532.00;5074671;28;20257;-69
2023/12/19 01:45:45;;;;;;;0.60;0.60;;;;;;;3.39;100.00;100521.81;5074451;28;20281;-69
2023/12/19 01:48:13;;;;;;;0.70;0.70;;;;;;;3.45;100.00;100514.31;5074511;28;20203;-69
2023/12/19 01:50:39;;;;;;;0.63;0.63;;;;;;;3.50;100.00;100515.22;5074247;28;20220;-69
2023/12/19 01:53:06;;;;;;;0.73;0.73;;;;;;;3.55;100.00;100519.56;5074267;28;20204;-69
2023/12/19 01:55:33;;;;;;;0.53;0.53;;;;;;;3.58;100.00;100523.81;5074370;28;20196;-69
2023/12/19 01:58:01;;;;;;;0.70;0.70;;;;;;;3.59;100.00;100525.50;5074411;28;20200;-70
2023/12/19 02:00:29;;;;;;;0.70;0.70;;;;;;;3.69;100.00;100532.41;5074118;28;20215;-69
2023/12/19 02:02:56;;;;;;;0.80;0.80;;;;;;;3.62;100.00;100526.41;5073951;28;20668;-69
2023/12/19 02:05:22;;;;;;;0.57;0.57;;;;;;;3.57;100.00;100510.28;5074150;28;20196;-69
2023/12/19 02:07:49;;;;;;;0.87;0.87;;;;;;;3.59;100.00;100531.44;5074042;28;20681;-70
2023/12/19 02:10:16;;;;;;;0.60;0.60;;;;;;;3.61;100.00;100523.84;5074191;28;20246;-69
2023/12/19 02:12:44;;;;;;;0.80;0.80;;;;;;;3.58;100.00;100517.06;5074073;28;20230;-69
2023/12/19 02:15:11;;;;;;;0.93;0.93;;;;;;;3.59;100.00;100522.97;5074144;28;20200;-70
2023/12/19 02:17:40;;;;;;;0.93;0.93;;;;;;;3.63;100.00;100527.25;5073865;28;20200;-70
2023/12/19 02:20:08;;;;;;;0.70;0.70;;;;;;;3.65;100.00;100533.22;5073258;28;20277;-69
2023/12/19 02:22:34;;;;;;;0.70;0.70;;;;;;;3.67;100.00;100534.09;5073741;28;20232;-70
2023/12/19 02:25:03;;;;;;;0.87;0.87;;;;;;;3.63;100.00;100523.06;5073686;28;20204;-70
2023/12/19 02:27:31;;;;;;;1.00;1.00;;;;;;;3.73;100.00;100534.19;5074266;28;20261;-69
2023/12/19 02:29:57;;;;;;;0.83;0.83;;;;;;;3.71;100.00;100525.72;5075399;28;20200;-70
2023/12/19 02:32:24;;;;;;;1.47;1.47;;;;;;;3.71;100.00;100520.63;5073744;28;20257;-70
2023/12/19 02:34:51;;;;;;;0.67;0.67;;;;;;;3.70;100.00;100531.59;5073464;28;20269;-70
2023/12/19 02:37:17;;;;;;;1.17;1.17;;;;;;;3.68;100.00;100516.34;5073572;28;20257;-69
2023/12/19 02:39:44;;;;;;;0.60;0.60;;;;;;;3.69;100.00;100518.06;5073636;28;20223;-69
2023/12/19 02:42:12;;;;;;;0.90;0.90;;;;;;;3.69;100.00;100509.59;5073490;28;20253;-70
2023/12/19 02:44:39;;;;;;;1.00;1.00;;;;;;;3.68;100.00;100505.38;5073758;28;20207;-69
2023/12/19 02:47:06;;;;;;;0.63;0.63;;;;;;;3.70;100.00;100511.31;5073139;28;20208;-70
2023/12/19 02:49:32;;;;;;;0.60;0.60;;;;;;;3.69;100.00;100512.13;5073440;28;20207;-70
2023/12/19 02:51:59;;;;;;;0.80;0.80;;;;;;;3.67;100.00;100507.06;5073309;28;20270;-70
2023/12/19 02:54:26;;;;;;;1.00;1.00;;;;;;;3.60;100.00;100517.06;5073208;28;20208;-69
2023/12/19 02:56:52;;;;;;;0.60;0.60;;;;;;;3.53;100.00;100512.72;5073188;28;20200;-70
2023/12/19 02:59:20;;;;;;;0.63;0.63;;;;;;;3.58;100.00;100516.22;5072952;28;20265;-70
2023/12/19 03:01:48;;;;;;;0.73;0.73;;;;;;;3.52;100.00;100508.50;5073376;28;20364;-70
2023/12/19 03:04:14;;;;;;;0.57;0.57;;;;;;;3.51;100.00;100504.25;5072952;28;20306;-71
2023/12/19 03:06:41;;;;;;;0.90;0.90;;;;;;;3.54;100.00;100509.38;5072956;28;20250;-70
2023/12/19 03:09:08;;;;;;;0.93;0.93;;;;;;;3.54;100.00;100504.31;5073071;28;20265;-71
2023/12/19 03:11:38;;;;;;;0.70;0.70;;;;;;;3.56;100.00;100516.16;5072964;28;20265;-71
2023/12/19 03:14:05;;;;;;;1.03;1.03;;;;;;;3.54;100.00;100516.97;5072850;28;20232;-70
2023/12/19 03:16:33;;;;;;;0.60;0.60;;;;;;;3.52;100.00;100516.13;5072245;28;20200;-72
2023/12/19 03:18:59;;;;;;;0.90;0.90;;;;;;;3.44;100.00;100515.13;5071557;28;20204;-72
2023/12/19 03:21:26;;;;;;;0.70;0.70;;;;;;;3.44;100.00;100520.19;5071287;28;20273;-72
2023/12/19 03:23:53;;;;;;;0.90;0.90;;;;;;;3.40;100.00;100513.34;5073576;28;20269;-72
2023/12/19 03:26:20;;;;;;;0.60;0.60;;;;;;;3.45;100.00;100521.91;5069500;28;20208;-72
2023/12/19 03:28:46;;;;;;;0.80;0.80;;;;;;;3.47;100.00;100515.16;5071074;28;20265;-72
2023/12/19 03:31:13;;;;;;;0.60;0.60;;;;;;;3.47;100.00;100512.63;5070308;28;20202;-72
2023/12/19 03:33:42;;;;;;;0.83;0.83;;;;;;;3.49;100.00;100505.94;5073591;28;20204;-72
2023/12/19 03:36:08;;;;;;;0.60;0.60;;;;;;;3.49;100.00;100508.47;5071413;28;20200;-72
2023/12/19 03:38:36;;;;;;;1.03;1.03;;;;;;;3.47;100.00;100502.50;5070925;28;20195;-71
2023/12/19 03:41:02;;;;;;;1.93;1.93;;;;;;;3.44;100.00;100505.84;5071093;28;20303;-72
2023/12/19 03:43:29;;;;;;;0.60;0.60;;;;;;;3.43;100.00;100501.59;5074056;28;20253;-72
2023/12/19 03:46:00;;;;;;;0.50;0.50;;;;;;;3.42;100.00;100492.31;5072541;28;20204;-72
2023/12/19 03:48:27;;;;;;;0.50;0.50;;;;;;;3.47;100.00;100489.81;5073296;28;20200;-73
2023/12/19 03:50:55;;;;;;;1.00;1.00;;;;;;;3.48;100.00;100494.06;5070623;28;20581;-72
2023/12/19 03:53:22;;;;;;;0.70;0.70;;;;;;;3.51;100.00;100491.59;5071035;28;20298;-72
2023/12/19 03:55:49;;;;;;;0.97;0.97;;;;;;;3.49;100.00;100496.63;5070747;28;20333;-72
2023/12/19 03:58:16;;;;;;;1.13;1.13;;;;;;;3.49;100.00;100491.53;5070057;28;20249;-73
2023/12/19 04:00:42;;;;;;;0.60;0.60;;;;;;;3.46;100.00;100490.63;5070493;28;20215;-72
2023/12/19 04:03:09;;;;;;;0.97;0.97;;;;;;;3.46;100.00;100490.63;5069289;28;20203;-72
2023/12/19 04:05:36;;;;;;;0.70;0.70;;;;;;;3.46;100.00;100477.97;5071218;28;20255;-72
2023/12/19 04:08:05;;;;;;;0.70;0.70;;;;;;;3.45;100.00;100481.34;5070459;28;20287;-72
2023/12/19 04:10:31;;;;;;;0.80;0.80;;;;;;;3.52;100.00;100488.22;5073011;28;20253;-72
2023/12/19 04:12:58;;;;;;;0.63;0.63;;;;;;;3.55;100.00;100480.66;5071835;28;20234;-72
2023/12/19 04:15:26;;;;;;;0.77;0.77;;;;;;;3.41;100.00;100456.78;5070889;28;20265;-72
2023/12/19 04:17:53;;;;;;;0.60;0.60;;;;;;;3.58;100.00;100479.03;5071359;28;20274;-72
2023/12/19 04:20:19;;;;;;;0.70;0.70;;;;;;;3.59;100.00;100479.84;5073510;28;20269;-72
2023/12/19 04:22:46;;;;;;;1.23;1.23;;;;;;;3.61;100.00;100483.28;5072716;28;20203;-72
2023/12/19 04:25:14;;;;;;;0.60;0.60;;;;;;;3.61;100.00;100490.91;5070148;28;20200;-72
2023/12/19 04:27:41;;;;;;;1.00;1.00;;;;;;;3.62;100.00;100492.59;5070461;28;20196;-72
2023/12/19 04:30:08;;;;;;;0.73;0.73;;;;;;;3.61;100.00;100493.44;5070492;28;20199;-72
2023/12/19 04:32:35;;;;;;;1.37;1.37;;;;;;;3.68;100.00;100495.25;5070505;28;20654;-72
2023/12/19 04:35:02;;;;;;;1.10;1.10;;;;;;;3.72;100.00;100483.47;5071669;28;20203;-71
2023/12/19 04:37:29;;;;;;;0.50;0.50;;;;;;;3.78;100.00;100489.44;5070392;28;20195;-72
2023/12/19 04:39:57;;;;;;;1.20;1.20;;;;;;;3.82;100.00;100491.19;5070234;28;20257;-72
2023/12/19 04:42:25;;;;;;;1.00;1.00;;;;;;;3.85;100.00;100488.72;5072866;28;20258;-72
2023/12/19 04:44:52;;;;;;;0.63;0.63;;;;;;;3.85;100.00;100493.78;5078352;28;20207;-72
2023/12/19 04:47:18;;;;;;;0.60;0.60;;;;;;;3.87;100.00;100487.06;5079737;28;20199;-71
2023/12/19 04:49:46;;;;;;;0.90;0.90;;;;;;;3.89;100.00;100485.38;5080853;28;20684;-72
2023/12/19 04:52:12;;;;;;;0.60;0.60;;;;;;;3.92;100.00;100490.50;5076984;28;20273;-72
2023/12/19 04:54:39;;;;;;;0.60;0.60;;;;;;;3.94;100.00;100486.28;5077004;28;20721;-72
2023/12/19 04:57:06;;;;;;;0.50;0.50;;;;;;;3.94;100.00;100493.91;5077005;28;20200;-72
2023/12/19 04:59:34;;;;;;;0.53;0.53;;;;;;;4.05;100.00;100492.38;5080543;28;20200;-72
2023/12/19 05:02:01;;;;;;;0.60;0.60;;;;;;;4.07;100.00;100490.69;5076686;28;20212;-72
2023/12/19 05:04:28;;;;;;;0.50;0.50;;;;;;;4.06;100.00;100478.00;5076197;28;20235;-71
2023/12/19 05:06:55;;;;;;;0.70;0.70;;;;;;;4.11;100.00;100491.59;5077997;28;20200;-72
2023/12/19 05:09:21;;;;;;;0.50;0.50;;;;;;;4.12;100.00;100491.63;5077338;28;20633;-71
2023/12/19 05:11:48;;;;;;;0.80;0.80;;;;;;;4.13;100.00;100490.81;5074744;28;20269;-72
2023/12/19 05:14:15;;;;;;;0.50;0.50;;;;;;;4.13;100.00;100495.88;5077736;28;20192;-72
2023/12/19 05:16:43;;;;;;;0.70;0.70;;;;;;;4.14;100.00;100507.72;5078296;28;20672;-72
2023/12/19 05:19:12;;;;;;;0.80;0.80;;;;;;;4.13;100.00;100511.13;5075239;28;20200;-72
2023/12/19 05:21:38;;;;;;;0.50;0.50;;;;;;;4.14;100.00;100507.72;5075433;28;20220;-72
2023/12/19 05:24:06;;;;;;;0.70;0.70;;;;;;;4.20;100.00;100507.78;5076460;28;20196;-72
2023/12/19 05:26:32;;;;;;;0.70;0.70;;;;;;;4.18;100.00;100508.63;5076776;28;20250;-71
2023/12/19 05:28:59;;;;;;;0.40;0.40;;;;;;;4.20;100.00;100507.78;5077219;28;20203;-72
2023/12/19 05:31:26;;;;;;;0.57;0.57;;;;;;;4.19;100.00;100495.97;5073846;28;20245;-72
2023/12/19 05:33:54;;;;;;;0.60;0.60;;;;;;;4.23;100.00;100502.75;5076588;28;20207;-72
2023/12/19 05:36:21;;;;;;;0.50;0.50;;;;;;;4.22;100.00;100503.63;5079507;28;20265;-72
2023/12/19 05:38:48;;;;;;;0.50;0.50;;;;;;;4.23;100.00;100497.69;5074239;28;20254;-71
2023/12/19 05:41:16;;;;;;;0.87;0.87;;;;;;;4.24;100.00;100509.53;5076633;28;20263;-71
2023/12/19 05:43:43;;;;;;;0.50;0.50;;;;;;;4.24;100.00;100509.53;5079300;28;20204;-71
2023/12/19 05:46:10;;;;;;;0.80;0.80;;;;;;;4.23;100.00;100517.16;5076504;28;20289;-71
2023/12/19 05:48:37;;;;;;;0.63;0.63;;;;;;;4.22;100.00;100503.63;5076353;28;20195;-71
2023/12/19 05:51:05;;;;;;;0.97;0.97;;;;;;;4.26;100.00;100513.81;5076058;28;20273;-71
2023/12/19 05:53:32;;;;;;;3.20;1.10;;;;;;;4.23;100.00;100519.69;5076888;28;20258;-71
2023/12/19 05:55:58;;;;;;;0.60;0.60;;;;;;;4.24;100.00;100523.91;5079512;28;20208;-71
2023/12/19 05:58:25;;;;;;;0.53;0.53;;;;;;;4.23;100.00;100520.53;5075749;28;20196;-71
2023/12/19 06:00:55;;;;;;;0.67;0.67;;;;;;;4.22;100.00;100526.47;5076676;28;20220;-71
2023/12/19 06:03:22;;;;;;;0.63;0.63;;;;;;;4.19;100.00;100521.34;5074424;28;20212;-71
2023/12/19 06:05:49;;;;;;;0.70;0.70;;;;;;;4.21;100.00;100519.66;5072778;28;20204;-72
2023/12/19 06:08:20;;;;;;;0.53;0.53;;;;;;;4.21;100.00;100522.19;5071560;28;20192;-70
2023/12/19 06:10:47;;;;;;;0.70;0.70;;;;;;;4.22;100.00;100523.06;5073061;28;20644;-69
2023/12/19 06:13:13;;;;;;;0.60;0.60;;;;;;;4.15;100.00;100511.97;5075108;28;20200;-69
2023/12/19 06:15:40;;;;;;;0.83;0.60;;;;;;;4.14;100.00;100501.78;5068422;28;20269;-68
2023/12/19 06:18:07;;;;;;;0.50;0.50;;;;;;;4.11;100.00;100506.81;5072084;28;20262;-69
2023/12/19 06:20:34;;;;;;;0.60;0.60;;;;;;;4.15;100.00;100503.50;5070747;28;20254;-69
2023/12/19 06:23:01;;;;;;;0.70;0.70;;;;;;;4.18;100.00;100504.41;5074330;28;20647;-68
2023/12/19 06:25:31;;;;;;;0.63;0.63;;;;;;;4.21;100.00;100504.44;5067666;28;20656;-73
2023/12/19 06:27:58;;;;;;;0.60;0.60;;;;;;;4.16;100.00;100517.91;5069489;28;20687;-74
2023/12/19 06:30:25;;;;;;;0.50;0.50;;;;;;;4.13;100.00;100512.78;5066946;28;20207;-74
2023/12/19 06:32:51;;;;;;;0.70;0.70;;;;;;;4.05;100.00;100520.28;5070650;28;20208;-73
2023/12/19 06:35:18;;;;;;;1.00;1.00;;;;;;;4.10;100.00;100521.19;5067902;28;20208;-73
2023/12/19 06:37:45;;;;;;;0.60;0.60;;;;;;;4.10;100.00;100517.81;5067860;28;20196;-73
2023/12/19 06:40:13;;;;;;;2.10;2.00;;;;;;;4.07;100.00;100526.22;5068719;28;20651;-73
2023/12/19 06:42:41;;;;;;;1.40;1.40;;;;;;;4.07;100.00;100518.59;5070654;28;20761;-74
2023/12/19 06:45:08;;;;;;;0.77;0.77;;;;;;;4.01;100.00;100518.53;5071464;28;20257;-74
2023/12/19 06:47:35;;;;;;;1.27;1.27;;;;;;;3.98;100.00;100521.03;5070106;28;20664;-73
2023/12/19 06:50:03;;;;;;;0.97;0.97;;;;;;;3.98;100.00;100508.34;5070316;28;20212;-74
2023/12/19 06:52:30;;;;;;;0.60;0.60;;;;;;;3.95;100.00;100515.91;5074067;28;20245;-72
2023/12/19 06:54:57;;;;;;;0.60;0.60;;;;;;;3.92;100.00;100515.88;5073320;28;20250;-72
2023/12/19 06:57:24;;;;;;;0.60;0.60;;;;;;;3.89;100.00;100505.69;5071087;28;20261;-74
2023/12/19 06:59:52;;;;;;;0.93;0.93;;;;;;;3.87;100.00;100497.22;5070826;28;20599;-73
2023/12/19 07:02:19;;;;;;;1.07;1.03;;;;;;;3.95;100.00;100520.13;5071399;28;20269;-73
2023/12/19 07:04:46;;;;;;;1.33;1.23;;;;;;;3.95;100.00;100520.13;5070368;28;20695;-73
2023/12/19 07:07:13;;;;;;;0.70;0.70;;;;;;;3.97;100.00;100523.56;5073024;28;20757;-73
2023/12/19 07:09:40;;;;;;;0.70;0.70;;;;;;;4.05;100.00;100527.91;5070468;28;20200;-72
2023/12/19 07:12:07;;;;;;;0.70;0.70;;;;;;;4.10;100.00;100526.25;5070709;28;20200;-73
2023/12/19 07:14:34;;;;;;;0.50;0.50;;;;;;;4.13;100.00;100526.34;5068822;28;20250;-73
2023/12/19 07:17:02;;;;;;;1.07;1.07;;;;;;;4.21;100.00;100534.88;5069732;28;20212;-73
2023/12/19 07:19:28;;;;;;;0.63;0.63;;;;;;;4.24;100.00;100539.16;5069735;28;20207;-73
2023/12/19 07:21:55;;;;;;;1.17;0.80;;;;;;;4.22;100.00;100525.59;5069280;28;20216;-74
2023/12/19 07:24:22;;;;;;;0.80;0.80;;;;;;;4.37;100.00;100535.09;5069662;28;20204;-74
2023/12/19 07:26:48;;;;;;;0.60;0.60;;;;;;;4.39;100.00;100539.38;5068825;28;20211;-74
2023/12/19 07:29:15;;;;;;;1.53;1.43;;;;;;;4.43;100.00;100530.06;5071038;28;20261;-73
2023/12/19 07:31:42;;;;;;;0.90;0.90;;;;;;;4.45;100.00;100523.34;5070625;28;20192;-74
2023/12/19 07:34:10;;;;;;;0.67;0.67;;;;;;;4.57;100.00;100513.34;5070372;28;20250;-74
2023/12/19 07:36:37;;;;;;;0.80;0.80;;;;;;;4.87;100.00;100508.59;5069007;28;21758;-74
2023/12/19 07:39:04;;;;;;;0.60;0.60;;;;;;;5.12;100.00;100500.38;5070168;28;20672;-73
2023/12/19 07:41:37;;;;;;;0.67;0.67;;;;;;;5.43;100.00;100496.41;5070392;28;20219;-73
2023/12/19 07:44:09;;;;;;;0.50;0.50;;;;;;;5.68;100.00;100507.63;5069655;28;20596;-73
2023/12/19 07:46:36;;;;;;;0.80;0.80;;;;;;;5.82;100.00;100490.75;5070893;28;20295;-73
2023/12/19 07:49:03;;;;;;;1.00;1.00;;;;;;;5.93;100.00;100491.72;5071844;28;20204;-74
2023/12/19 07:51:31;;;;;;;1.03;0.73;;;;;;;6.06;100.00;100475.66;5071159;28;20215;-73
2023/12/19 07:53:57;;;;;;;0.80;0.80;;;;;;;6.36;100.00;100481.75;5069524;28;20200;-73
2023/12/19 07:56:24;;;;;;;0.77;0.77;;;;;;;6.59;100.00;100488.59;5070711;28;20192;-71
2023/12/19 07:58:52;;;;;;;1.13;0.77;;;;;;;6.75;100.00;100489.53;5068912;28;20573;-71
2023/12/19 08:01:19;;;;;;;0.80;0.80;;;;;;;7.04;100.00;100480.25;5065825;28;20254;-71
2023/12/19 08:03:46;;;;;;;0.87;0.87;;;;;;;7.23;100.00;100484.50;5071083;28;20629;-73
2023/12/19 08:06:13;;;;;;;0.50;0.50;;;;;;;7.46;100.00;100488.75;5068447;28;20204;-72
2023/12/19 08:08:42;;;;;;;0.90;0.90;;;;;;;7.54;100.00;100493.00;5070752;28;20655;-72
2023/12/19 08:11:09;;;;;;;1.17;0.90;;;;;;;7.56;100.00;100498.13;5067933;28;20206;-73
2023/12/19 08:13:36;;;;;;;0.70;0.70;;;;;;;7.66;100.00;100499.78;5066190;28;20283;-72
2023/12/19 08:16:04;;;;;;;1.10;1.10;;;;;;;7.75;99.43;100498.09;5068655;28;20287;-72
2023/12/19 08:18:31;;;;;;;4.43;0.90;;;;;;;7.88;99.72;100501.47;5068180;28;20207;-72
2023/12/19 08:20:58;;;;;;;0.80;0.80;;;;;;;8.05;99.45;100499.72;5070017;28;20203;-72
2023/12/19 08:23:25;;;;;;;0.80;0.80;;;;;;;8.11;99.33;100498.88;5066929;28;20262;-73
2023/12/19 08:25:53;;;;;;;1.47;1.47;;;;;;;8.23;99.46;100504.81;5067080;28;20207;-72
2023/12/19 08:28:20;;;;;;;1.90;0.97;;;;;;;8.23;99.09;100499.69;5070235;28;20241;-72
2023/12/19 08:30:48;;;;;;;2.03;1.07;;;;;;;8.27;99.80;100495.44;5069216;28;20204;-73
2023/12/19 08:33:15;;;;;;;1.37;1.37;;;;;;;8.40;97.97;100480.06;5068672;28;20200;-73
2023/12/19 08:35:42;;;;;;;1.00;1.00;;;;;;;8.51;97.90;100479.16;5065794;28;20202;-72
2023/12/19 08:38:09;;;;;;;0.63;0.63;;;;;;;8.50;99.24;100482.59;5068948;28;20200;-72
2023/12/19 08:40:35;;;;;;;1.10;1.10;;;;;;;8.39;100.00;100473.25;5068315;28;20254;-72
2023/12/19 08:43:07;;;;;;;1.10;1.10;;;;;;;8.37;100.00;100457.06;5069326;28;20250;-72
2023/12/19 08:45:34;;;;;;;1.53;1.53;;;;;;;8.28;100.00;100461.38;5067729;28;20265;-72
2023/12/19 08:48:00;;;;;;;1.60;1.50;;;;;;;7.98;100.00;100426.53;5071649;28;20211;-72
2023/12/19 08:50:27;;;;;;;1.97;1.83;;;;;;;8.10;100.00;100457.16;5064366;28;20733;-72
2023/12/19 08:52:54;;;;;;;1.17;1.17;;;;;;;8.09;100.00;100459.72;5064498;28;20208;-72
2023/12/19 08:55:21;;;;;;;1.40;1.40;;;;;;;8.10;100.00;100457.16;5066323;28;20200;-74
2023/12/19 08:57:47;;;;;;;1.00;1.00;;;;;;;8.06;100.00;100439.28;5069074;28;20203;-72
2023/12/19 09:00:18;;;;;;;1.60;1.50;;;;;;;7.98;100.00;100435.94;5069256;28;20250;-71
2023/12/19 09:02:45;;;;;;;1.03;1.03;;;;;;;7.99;100.00;100433.34;5071577;28;20265;-71
2023/12/19 09:05:13;;;;;;;0.90;0.90;;;;;;;8.08;100.00;100438.41;5069274;28;20674;-76
2023/12/19 09:07:40;;;;;;;1.20;1.20;;;;;;;8.14;100.00;100423.06;5066803;28;20262;-75
2023/12/19 09:10:08;;;;;;;1.33;1.27;;;;;;;8.20;100.00;100415.41;5069627;28;20732;-76
2023/12/19 09:12:36;;;;;;;1.97;1.87;;;;;;;8.33;100.00;100403.47;5067964;28;20276;-72
2023/12/19 09:15:03;;;;;;;1.47;1.47;;;;;;;8.42;100.00;100411.94;5072192;28;20207;-72
2023/12/19 09:17:31;;;;;;;1.50;1.50;;;;;;;8.48;100.00;100402.50;5073880;28;20192;-71
2023/12/19 09:19:58;;;;;;;4.93;1.40;;;;;;;8.63;100.00;100410.94;5067944;28;20251;-71
2023/12/19 09:22:25;;;;;;;0.90;0.90;;;;;;;8.71;100.00;100400.66;5070506;28;20212;-71
2023/12/19 09:24:52;;;;;;;0.83;0.83;;;;;;;8.78;100.00;100399.78;5070505;28;20251;-71
2023/12/19 09:27:19;;;;;;;1.10;1.10;;;;;;;8.86;100.00;100395.44;5069123;28;20272;-71
2023/12/19 09:29:45;;;;;;;1.20;1.20;;;;;;;8.85;100.00;100383.53;5072615;28;20200;-72
2023/12/19 09:32:12;;;;;;;1.03;1.03;;;;;;;9.01;100.00;100390.22;5074201;28;20249;-71
2023/12/19 09:34:40;;;;;;;2.37;1.63;;;;;;;9.11;100.00;100386.72;5074350;28;20208;-71
2023/12/19 09:37:07;;;;;;;2.03;1.50;;;;;;;9.24;100.00;100384.91;5074170;28;20223;-70
2023/12/19 09:39:34;;;;;;;4.27;1.43;;;;;;;9.28;100.00;100369.50;5074294;28;20273;-71
2023/12/19 09:42:01;;;;;;;1.03;0.90;;;;;;;9.49;100.00;100365.91;5074792;28;20277;-71
2023/12/19 09:44:28;;;;;;;1.50;1.40;;;;;;;9.58;100.00;100377.75;5074707;28;20253;-71
2023/12/19 09:46:55;;;;;;;2.67;1.30;;;;;;;9.62;100.00;100380.28;5073810;28;20250;-72
2023/12/19 09:49:23;;;;;;;1.47;1.33;;;;;;;9.68;100.00;100371.66;5072829;28;20200;-71
2023/12/19 09:51:53;;;;;;;4.63;1.60;;;;;;;9.82;100.00;100372.38;5073503;28;20226;-71
2023/12/19 09:54:21;;;;;;;0.60;0.60;;;;;;;9.85;100.00;100362.09;5074486;28;20196;-71
2023/12/19 09:56:54;;;;;;;0.93;0.93;;;;;;;9.91;100.00;100355.19;5074248;28;20238;-72
2023/12/19 09:59:21;;;;;;;1.27;1.07;;;;;;;10.00;100.00;100352.50;5073538;28;20900;-71
2023/12/19 10:01:48;;;;;;;1.40;1.30;;;;;;;10.08;100.00;100349.81;5074028;28;20299;-71
2023/12/19 10:04:16;;;;;;;1.10;1.10;;;;;;;10.18;100.00;100343.72;5072983;28;20195;-70
2023/12/19 10:06:55;;;;;;;1.00;1.00;;;;;;;10.25;100.00;100336.81;5071954;28;20196;-70
2023/12/19 10:09:22;;;;;;;1.60;1.60;;;;;;;10.40;100.00;100337.44;5073390;28;20619;-70
2023/12/19 10:12:03;;;;;;;1.93;1.83;;;;;;;10.49;100.00;100342.47;5076298;28;20625;-71
2023/12/19 10:14:32;;;;;;;1.23;1.13;;;;;;;10.53;100.00;100336.38;5073611;28;20199;-71
2023/12/19 10:16:59;;;;;;;5.93;1.80;;;;;;;10.59;100.00;100332.91;5074322;28;20199;-71
2023/12/19 10:19:27;;;;;;;1.30;1.30;;;;;;;10.67;100.00;100331.06;5073525;28;20200;-70
2023/12/19 10:22:05;;;;;;;1.87;1.77;;;;;;;10.79;100.00;100320.59;5074183;28;20208;-71
2023/12/19 10:24:32;;;;;;;1.53;1.43;;;;;;;10.89;100.00;100326.41;5072855;28;20227;-70
2023/12/19 10:27:00;;;;;;;0.97;0.97;;;;;;;11.02;100.00;100317.63;5074136;28;20200;-70
2023/12/19 10:29:28;;;;;;;1.10;1.10;;;;;;;11.03;99.72;100321.91;5073716;28;20232;-70
2023/12/19 10:31:55;;;;;;;1.00;1.00;;;;;;;11.15;100.00;100318.31;5073540;28;20232;-70
2023/12/19 10:34:23;;;;;;;1.20;1.20;;;;;;;11.18;98.16;100313.13;5073696;28;20652;-70
2023/12/19 10:36:50;;;;;;;2.00;1.33;;;;;;;11.21;98.37;100306.19;5074136;28;20670;-70
2023/12/19 10:39:19;;;;;;;1.40;1.33;;;;;;;11.38;97.87;100293.88;5073421;28;20291;-70
2023/12/19 10:41:46;;;;;;;1.23;1.23;;;;;;;11.54;99.64;100286.72;5073524;28;20247;-70
2023/12/19 10:44:13;;;;;;;1.00;1.00;;;;;;;11.59;98.63;100280.63;5073423;28;20649;-70
2023/12/19 10:46:41;;;;;;;1.00;1.00;;;;;;;11.62;97.59;100279.72;5073319;28;20262;-70
2023/12/19 10:49:07;;;;;;;1.47;1.37;;;;;;;11.68;97.15;100273.59;5073589;28;20258;-70
2023/12/19 10:51:35;;;;;;;1.80;1.77;;;;;;;11.75;97.21;100275.19;5073374;28;20289;-70
2023/12/19 10:54:09;;;;;;;1.10;1.10;;;;;;;11.82;96.70;100261.34;5073339;28;20192;-70
2023/12/19 10:56:47;;;;;;;0.80;0.80;;;;;;;11.83;95.99;100242.47;5073071;28;20200;-70
2023/12/19 10:59:21;;;;;;;1.33;1.33;;;;;;;11.94;96.35;100261.09;5073370;28;20295;-70
2023/12/19 11:01:52;;;;;;;1.07;1.07;;;;;;;12.01;96.83;100248.06;5073147;28;20629;-70
2023/12/19 11:04:23;;;;;;;2.63;1.17;;;;;;;12.07;97.01;100247.09;5073233;28;20281;-70
2023/12/19 11:06:54;;;;;;;1.63;1.63;;;;;;;12.09;96.56;100242.75;5073067;28;20231;-70
2023/12/19 11:09:26;;;;;;;1.23;1.13;;;;;;;12.14;96.59;100240.09;5073165;28;20265;-70
2023/12/19 11:11:55;;;;;;;0.90;0.90;;;;;;;12.19;97.25;100236.50;5073005;28;20208;-71
2023/12/19 11:14:24;;;;;;;1.37;1.37;;;;;;;12.28;97.66;100235.47;5073254;28;20264;-70
2023/12/19 11:16:55;;;;;;;1.23;1.23;;;;;;;12.20;97.92;100215.06;5072811;28;20727;-70
2023/12/19 11:19:27;;;;;;;1.30;1.30;;;;;;;12.21;95.77;100223.63;5072479;28;20250;-74
2023/12/19 11:22:02;;;;;;;1.13;1.10;;;;;;;12.30;96.96;100225.97;5071106;28;20732;-70
2023/12/19 11:24:36;;;;;;;1.77;1.67;;;;;;;12.37;96.13;100220.66;5072174;28;20223;-72